Time;durP1;ratioP1;P1;durP2;ratioP2;P2;SDS_P1;SDS_P2;PMS_P1;PMS_P2;Temp;Humidity;BMP_temperature;BMP_pressure;BME280_temperature;BME280_humidity;BME280_pressure;Samples;Min_cycle;Max_cycle;Signal;HPM_P1;HPM_P2
2021/01/25 00:04:47;;;;;;;1.98;1.05;;;16.90;60.40;;;;;;4768311;26;20185;-47
2021/01/25 00:07:12;;;;;;;3.22;1.60;;;15.00;59.30;;;;;;4992331;28;20567;-47
2021/01/25 00:09:38;;;;;;;1.83;1.10;;;15.00;59.40;;;;;;4992449;28;20491;-48
2021/01/25 00:12:04;;;;;;;2.03;1.10;;;15.00;59.50;;;;;;4992632;28;20031;-47
2021/01/25 00:14:29;;;;;;;2.45;1.30;;;15.00;59.40;;;;;;4992375;28;20022;-47
2021/01/25 00:16:55;;;;;;;1.48;1.13;;;14.90;59.40;;;;;;4992287;28;20037;-47
2021/01/25 00:19:20;;;;;;;2.75;1.10;;;14.90;59.50;;;;;;4992510;28;20039;-48
2021/01/25 00:21:46;;;;;;;1.85;1.08;;;14.90;59.60;;;;;;4992227;28;20029;-47
2021/01/25 00:24:13;;;;;;;1.38;1.10;;;14.90;59.60;;;;;;4992300;28;20019;-48
2021/01/25 00:26:38;;;;;;;1.30;1.00;;;14.90;59.60;;;;;;4992248;28;20479;-49
2021/01/25 00:29:04;;;;;;;2.72;1.10;;;14.80;59.70;;;;;;4992184;28;20030;-47
2021/01/25 00:31:30;;;;;;;1.30;1.00;;;14.80;59.60;;;;;;4992419;28;20025;-47
2021/01/25 00:33:56;;;;;;;1.00;0.80;;;14.80;59.80;;;;;;4992430;28;20032;-49
2021/01/25 00:36:22;;;;;;;1.33;1.17;;;14.80;59.60;;;;;;4992303;28;20057;-49
2021/01/25 00:38:47;;;;;;;1.58;1.02;;;14.80;59.60;;;;;;4992239;28;20053;-49
2021/01/25 00:41:13;;;;;;;1.10;1.00;;;14.80;59.70;;;;;;4992477;28;20026;-47
2021/01/25 00:43:38;;;;;;;0.73;0.70;;;14.70;59.60;;;;;;4992525;28;20025;-49
2021/01/25 00:46:04;;;;;;;1.52;1.02;;;14.50;59.60;;;;;;4992267;28;20026;-48
2021/01/25 00:48:30;;;;;;;1.15;0.90;;;14.70;59.80;;;;;;4992239;28;20041;-46
2021/01/25 00:50:55;;;;;;;1.23;0.88;;;14.70;59.70;;;;;;4992046;28;20034;-48
2021/01/25 00:53:21;;;;;;;1.25;0.77;;;14.70;59.80;;;;;;4992297;28;20023;-48
2021/01/25 00:55:46;;;;;;;2.45;0.98;;;14.70;59.80;;;;;;4992285;28;20034;-47
2021/01/25 00:58:12;;;;;;;0.82;0.80;;;14.70;59.90;;;;;;4992218;28;20025;-48
2021/01/25 01:00:38;;;;;;;1.75;0.85;;;14.60;59.90;;;;;;4991969;28;20030;-47
2021/01/25 01:03:03;;;;;;;1.98;0.73;;;14.60;59.90;;;;;;4993420;28;20051;-47
2021/01/25 01:05:30;;;;;;;0.98;0.90;;;14.60;60.00;;;;;;4993088;28;20124;-47
2021/01/25 01:07:55;;;;;;;2.15;0.90;;;14.60;60.00;;;;;;4995469;28;20333;-48
2021/01/25 01:10:21;;;;;;;2.22;0.98;;;14.60;60.00;;;;;;4995335;28;20022;-48
2021/01/25 01:12:46;;;;;;;1.30;0.77;;;14.60;60.00;;;;;;4995609;28;20029;-49
2021/01/25 01:15:13;;;;;;;1.30;0.90;;;14.60;60.10;;;;;;4995345;28;20120;-49
2021/01/25 01:17:43;;;;;;;0.95;0.80;;;14.50;60.10;;;;;;4995234;28;20084;-47
2021/01/25 01:20:10;;;;;;;1.00;0.90;;;14.50;60.00;;;;;;4995553;28;20019;-49
2021/01/25 01:22:36;;;;;;;1.00;0.90;;;14.60;60.20;;;;;;4995333;28;20096;-48
2021/01/25 01:25:07;;;;;;;1.33;0.90;;;14.50;60.10;;;;;;4995369;28;20027;-48
2021/01/25 01:27:39;;;;;;;5.70;1.67;;;14.50;60.10;;;;;;4994945;28;20420;-47
2021/01/25 01:30:08;;;;;;;1.38;0.77;;;14.70;60.20;;;;;;4995312;28;20777;-48
2021/01/25 01:32:34;;;;;;;2.33;1.13;;;14.50;60.20;;;;;;4995199;28;20110;-48
2021/01/25 01:35:07;;;;;;;1.55;0.90;;;14.50;60.20;;;;;;4995186;28;20110;-48
2021/01/25 01:37:33;;;;;;;1.05;0.80;;;14.40;60.20;;;;;;4995085;28;20129;-47
2021/01/25 01:40:00;;;;;;;1.25;0.75;;;14.80;60.50;;;;;;4994915;28;20500;-48
2021/01/25 01:42:25;;;;;;;2.05;0.70;;;14.40;60.20;;;;;;4994809;28;20045;-48
2021/01/25 01:44:51;;;;;;;2.17;1.10;;;14.40;60.30;;;;;;4995149;28;20094;-48
2021/01/25 01:47:21;;;;;;;1.05;0.95;;;14.40;60.30;;;;;;4994718;28;20480;-48
2021/01/25 01:49:50;;;;;;;;;;;14.40;60.30;;;;;;4995478;28;20046;-48
2021/01/25 01:52:16;;;;;;;0.93;0.88;;;14.30;60.20;;;;;;4994700;28;19906;-48
2021/01/25 01:54:42;;;;;;;1.15;0.82;;;14.30;60.30;;;;;;4994773;28;20026;-50
2021/01/25 01:57:08;;;;;;;2.13;1.00;;;14.40;60.30;;;;;;4994851;28;20030;-47
2021/01/25 01:59:34;;;;;;;1.38;1.00;;;14.30;60.40;;;;;;4994653;28;20036;-51
2021/01/25 02:01:59;;;;;;;1.27;0.85;;;14.30;80.20;;;;;;4994546;28;20037;-49
2021/01/25 02:04:26;;;;;;;1.48;0.80;;;14.30;60.30;;;;;;4995472;28;20058;-48
2021/01/25 02:06:55;;;;;;;1.30;0.90;;;14.30;60.30;;;;;;4994565;28;20045;-49
2021/01/25 02:09:21;;;;;;;1.25;0.80;;;14.30;60.30;;;;;;4994563;28;20112;-52
2021/01/25 02:11:47;;;;;;;0.90;0.80;;;14.30;60.30;;;;;;4994289;28;20030;-48
2021/01/25 02:14:13;;;;;;;1.55;1.05;;;14.20;60.20;;;;;;4994506;28;20031;-47
2021/01/25 02:16:40;;;;;;;1.17;0.93;;;14.20;60.30;;;;;;4993477;28;20081;-47
2021/01/25 02:19:11;;;;;;;2.25;1.08;;;14.20;60.20;;;;;;4994351;28;20037;-47
2021/01/25 02:21:54;;;;;;;1.25;0.95;;;14.20;60.30;;;;;;4994386;28;20022;-47
2021/01/25 02:24:47;;;;;;;1.02;0.80;;;14.20;60.30;;;;;;4970540;28;20421;-48
2021/01/25 02:27:36;;;;;;;0.80;0.80;;;14.20;60.30;;;;;;4978545;28;20054;-48
2021/01/25 02:30:06;;;;;;;0.80;0.80;;;14.20;60.20;;;;;;4993860;28;20385;-47
2021/01/25 02:32:32;;;;;;;1.05;0.80;;;14.20;60.20;;;;;;4993977;28;20031;-48
2021/01/25 02:35:01;;;;;;;1.38;1.00;;;14.50;60.40;;;;;;4993796;28;20037;-46
2021/01/25 02:37:28;;;;;;;1.60;1.05;;;14.10;60.20;;;;;;4993903;28;20030;-49
2021/01/25 02:39:56;;;;;;;1.05;0.70;;;14.10;60.20;;;;;;4993954;28;20058;-47
2021/01/25 02:42:23;;;;;;;2.05;0.90;;;14.10;60.20;;;;;;4993872;28;20568;-47
2021/01/25 02:44:50;;;;;;;1.70;1.00;;;14.10;60.30;;;;;;4993483;28;20031;-47
2021/01/25 02:47:17;;;;;;;1.23;0.95;;;14.10;60.20;;;;;;4993685;28;20042;-47
2021/01/25 02:49:44;;;;;;;1.23;1.00;;;14.10;60.30;;;;;;4993745;28;20029;-47
2021/01/25 02:52:11;;;;;;;1.48;1.00;;;14.10;60.30;;;;;;4993711;28;20065;-46
2021/01/25 02:54:37;;;;;;;1.02;0.80;;;14.10;60.30;;;;;;4993430;28;20098;-48
2021/01/25 02:57:02;;;;;;;0.93;0.93;;;14.10;60.30;;;;;;4975917;28;20133;-48
2021/01/25 02:59:28;;;;;;;1.05;0.98;;;14.00;60.30;;;;;;4993498;28;20105;-47
2021/01/25 03:01:54;;;;;;;1.58;1.10;;;14.00;80.50;;;;;;4993103;28;20030;-47
2021/01/25 03:04:28;;;;;;;1.17;0.93;;;14.00;60.30;;;;;;4994719;28;20099;-48
2021/01/25 03:06:53;;;;;;;1.50;1.25;;;14.00;60.30;;;;;;4993397;28;20042;-47
2021/01/25 03:09:22;;;;;;;0.90;0.90;;;14.00;60.30;;;;;;4993468;28;20018;-47
2021/01/25 03:11:54;;;;;;;0.90;0.90;;;13.80;60.20;;;;;;4993337;28;20022;-47
2021/01/25 03:14:19;;;;;;;1.23;1.13;;;13.80;60.30;;;;;;4993031;28;20149;-48
2021/01/25 03:16:45;;;;;;;1.10;1.00;;;13.90;60.40;;;;;;4992999;28;20528;-46
2021/01/25 03:19:17;;;;;;;0.90;0.80;;;13.90;60.40;;;;;;4993312;28;20381;-47
2021/01/25 03:21:50;;;;;;;2.00;1.10;;;14.00;60.50;;;;;;4992905;28;20564;-47
2021/01/25 03:24:16;;;;;;;1.20;1.10;;;13.90;60.40;;;;;;4992992;28;20037;-49
2021/01/25 03:26:42;;;;;;;0.82;0.80;;;13.90;60.30;;;;;;4993120;28;20037;-52
2021/01/25 03:29:10;;;;;;;1.10;1.00;;;13.90;60.30;;;;;;4993142;28;20397;-49
2021/01/25 03:31:36;;;;;;;1.13;1.10;;;14.00;60.30;;;;;;4993073;28;20030;-47
2021/01/25 03:34:03;;;;;;;1.00;0.93;;;14.00;60.80;;;;;;4992856;28;20034;-47
2021/01/25 03:36:29;;;;;;;1.00;1.00;;;14.00;60.50;;;;;;4992657;28;20033;-47
2021/01/25 03:38:58;;;;;;;2.25;1.30;;;14.00;61.10;;;;;;4993042;28;20022;-47
2021/01/25 03:41:24;;;;;;;1.67;1.15;;;14.10;60.80;;;;;;4975244;28;20031;-47
2021/01/25 03:43:50;;;;;;;0.90;0.90;;;14.10;60.40;;;;;;4992974;28;20046;-48
2021/01/25 03:46:16;;;;;;;0.75;0.75;;;14.20;61.10;;;;;;4992550;28;20061;-49
2021/01/25 03:48:41;;;;;;;1.77;1.08;;;14.20;61.00;;;;;;4992930;28;20022;-49
2021/01/25 03:51:07;;;;;;;0.80;0.80;;;14.00;60.80;;;;;;4992903;28;20097;-49
2021/01/25 03:53:33;;;;;;;2.03;1.00;;;14.20;60.70;;;;;;4992593;28;20034;-47
2021/01/25 03:55:59;;;;;;;0.93;0.93;;;14.20;61.10;;;;;;4992627;28;20026;-48
2021/01/25 03:58:25;;;;;;;1.20;1.10;;;14.10;80.70;;;;;;4992468;28;20038;-47
2021/01/25 04:00:50;;;;;;;1.65;1.17;;;14.30;61.20;;;;;;4992819;28;20058;-48
2021/01/25 04:03:16;;;;;;;1.50;0.95;;;14.30;61.10;;;;;;4993815;28;20061;-48
2021/01/25 04:05:42;;;;;;;1.17;1.08;;;14.30;61.20;;;;;;4992791;28;20018;-47
2021/01/25 04:08:08;;;;;;;1.30;1.20;;;14.30;61.10;;;;;;4992349;28;20047;-49
2021/01/25 04:10:33;;;;;;;1.15;0.93;;;14.30;61.20;;;;;;4992637;28;20027;-47
2021/01/25 04:12:59;;;;;;;1.45;1.23;;;14.10;61.00;;;;;;4992699;28;20025;-48
2021/01/25 04:15:24;;;;;;;1.13;1.02;;;14.10;60.80;;;;;;4992680;28;20040;-48
2021/01/25 04:17:50;;;;;;;1.17;0.93;;;14.30;61.00;;;;;;4992602;28;20503;-49
2021/01/25 04:20:15;;;;;;;1.23;0.98;;;14.30;61.30;;;;;;4992300;28;20033;-48
2021/01/25 04:22:41;;;;;;;1.75;1.25;;;14.20;61.60;;;;;;4992204;28;20028;-48
2021/01/25 04:25:08;;;;;;;1.27;1.13;;;14.20;61.80;;;;;;4992517;28;20023;-47
2021/01/25 04:27:34;;;;;;;1.42;1.20;;;14.20;61.60;;;;;;4992210;28;20035;-48
2021/01/25 04:30:00;;;;;;;1.58;1.20;;;14.20;61.30;;;;;;4992522;28;20027;-48
2021/01/25 04:32:26;;;;;;;1.20;1.02;;;14.10;61.50;;;;;;4992260;28;20057;-46
2021/01/25 04:34:53;;;;;;;1.00;1.00;;;14.10;61.20;;;;;;4992549;28;20046;-49
2021/01/25 04:37:19;;;;;;;1.20;1.10;;;14.10;61.20;;;;;;4974808;28;20105;-47
2021/01/25 04:39:45;;;;;;;1.10;1.00;;;14.10;61.10;;;;;;4992607;28;20096;-49
2021/01/25 04:42:10;;;;;;;1.10;1.00;;;14.00;61.10;;;;;;4996220;28;20027;-47
2021/01/25 04:44:40;;;;;;;1.25;1.13;;;13.90;61.10;;;;;;4996186;28;20037;-49
2021/01/25 04:47:08;;;;;;;1.10;1.00;;;14.00;61.30;;;;;;4995762;28;20428;-47
2021/01/25 04:49:36;;;;;;;1.40;1.30;;;14.00;61.30;;;;;;4996160;28;20061;-47
2021/01/25 04:52:01;;;;;;;1.40;1.30;;;13.90;61.30;;;;;;4996123;28;20030;-47
2021/01/25 04:54:28;;;;;;;1.02;0.93;;;13.90;61.30;;;;;;4995878;28;20113;-47
2021/01/25 04:56:55;;;;;;;2.05;1.02;;;13.90;61.20;;;;;;4978376;28;20118;-47
2021/01/25 04:59:21;;;;;;;1.02;0.93;;;14.00;61.10;;;;;;4995755;28;20033;-46
2021/01/25 05:01:46;;;;;;;1.20;1.10;;;14.00;81.40;;;;;;4995834;28;20026;-47
2021/01/25 05:04:12;;;;;;;1.10;1.00;;;13.70;61.20;;;;;;4996950;28;20042;-48
2021/01/25 05:06:38;;;;;;;0.93;0.90;;;13.90;61.20;;;;;;4995765;28;20046;-48
2021/01/25 05:09:04;;;;;;;1.17;1.08;;;13.90;61.10;;;;;;4995500;28;20037;-48
2021/01/25 05:11:30;;;;;;;1.08;1.00;;;13.90;61.10;;;;;;4995703;28;20019;-47
2021/01/25 05:14:03;;;;;;;1.63;1.15;;;13.80;61.20;;;;;;4995604;28;20033;-47
2021/01/25 05:16:30;;;;;;;1.42;1.00;;;13.90;60.90;;;;;;4995320;28;20473;-47
2021/01/25 05:18:57;;;;;;;1.33;1.10;;;13.90;61.00;;;;;;4995304;28;20034;-47
2021/01/25 05:21:45;;;;;;;1.00;1.00;;;13.90;61.20;;;;;;4995152;28;20557;-48
2021/01/25 05:24:12;;;;;;;1.38;1.10;;;13.90;61.20;;;;;;4995334;28;20026;-49
2021/01/25 05:26:51;;;;;;;1.50;1.40;;;13.90;61.20;;;;;;4995318;28;20108;-48
2021/01/25 05:29:27;;;;;;;1.42;1.20;;;13.80;60.90;;;;;;4995234;28;20529;-47
2021/01/25 05:31:53;;;;;;;1.77;1.20;;;13.80;61.20;;;;;;4995289;28;20693;-47
2021/01/25 05:34:19;;;;;;;1.52;0.88;;;14.10;61.20;;;;;;4995041;28;20030;-47
2021/01/25 05:36:46;;;;;;;2.05;1.50;;;13.80;61.10;;;;;;4995041;28;20026;-49
2021/01/25 05:39:17;;;;;;;1.65;1.33;;;13.80;60.90;;;;;;4995263;28;20015;-48
2021/01/25 05:41:56;;;;;;;1.40;1.23;;;13.80;60.90;;;;;;4995286;28;20022;-48
2021/01/25 05:44:22;;;;;;;1.40;0.85;;;13.80;61.40;;;;;;4995025;28;20472;-47
2021/01/25 05:46:48;;;;;;;1.30;1.20;;;14.10;61.30;;;;;;4994766;28;20507;-46
2021/01/25 05:49:24;;;;;;;2.10;1.80;;;13.80;61.20;;;;;;4995109;28;20026;-48
2021/01/25 05:51:53;;;;;;;1.52;1.42;;;13.80;61.20;;;;;;4993950;28;20026;-49
2021/01/25 05:54:20;;;;;;;1.50;1.40;;;13.80;61.20;;;;;;4994902;28;20053;-47
2021/01/25 05:56:45;;;;;;;1.52;1.42;;;13.70;61.20;;;;;;4994622;28;20061;-48
2021/01/25 05:59:11;;;;;;;2.13;1.30;;;13.70;61.20;;;;;;4994580;28;20049;-47
2021/01/25 06:01:38;;;;;;;1.52;1.42;;;13.60;81.30;;;;;;4994445;28;20060;-47
2021/01/25 06:04:04;;;;;;;1.88;1.23;;;13.70;61.20;;;;;;4995846;28;20053;-48
2021/01/25 06:06:34;;;;;;;1.67;1.02;;;13.70;61.20;;;;;;4994278;28;20030;-47
2021/01/25 06:09:15;;;;;;;1.77;1.35;;;13.60;61.30;;;;;;4994645;28;20081;-48
2021/01/25 06:11:44;;;;;;;1.20;1.10;;;13.80;61.60;;;;;;4994575;28;20472;-47
2021/01/25 06:14:19;;;;;;;1.10;1.00;;;13.90;61.80;;;;;;4994602;28;20057;-47
2021/01/25 06:16:54;;;;;;;1.27;1.15;;;14.00;61.70;;;;;;4994241;28;20577;-47
2021/01/25 06:19:25;;;;;;;1.50;1.10;;;14.10;61.70;;;;;;4994323;28;20077;-47
2021/01/25 06:21:50;;;;;;;0.90;0.90;;;14.10;61.60;;;;;;4994392;28;20034;-47
2021/01/25 06:24:19;;;;;;;1.00;1.00;;;14.20;61.70;;;;;;4994521;28;20022;-49
2021/01/25 06:26:48;;;;;;;1.25;1.10;;;14.30;61.70;;;;;;4994365;28;20237;-47
2021/01/25 06:29:17;;;;;;;1.23;1.00;;;14.30;61.60;;;;;;4994181;28;20036;-49
2021/01/25 06:31:45;;;;;;;1.25;1.00;;;14.30;61.90;;;;;;4976644;28;20295;-47
2021/01/25 06:34:11;;;;;;;1.38;1.10;;;14.40;61.50;;;;;;4994265;28;20031;-47
2021/01/25 06:36:40;;;;;;;1.02;1.00;;;14.50;61.50;;;;;;4993949;28;20036;-48
2021/01/25 06:39:07;;;;;;;1.75;1.00;;;14.50;61.90;;;;;;4994017;28;20049;-48
2021/01/25 06:41:43;;;;;;;0.98;0.90;;;15.10;61.60;;;;;;4976474;28;20487;-47
2021/01/25 06:44:10;;;;;;;1.10;1.00;;;14.60;61.30;;;;;;4993993;28;20058;-52
2021/01/25 06:46:38;;;;;;;1.50;0.93;;;14.70;61.40;;;;;;4993790;28;20042;-49
2021/01/25 06:49:09;;;;;;;0.90;0.80;;;14.70;61.40;;;;;;4993850;28;20050;-48
2021/01/25 06:51:42;;;;;;;1.85;1.17;;;14.80;61.60;;;;;;4993865;28;20460;-48
2021/01/25 06:54:11;;;;;;;1.92;0.88;;;14.90;61.50;;;;;;4976234;28;20030;-47
2021/01/25 06:56:44;;;;;;;1.35;0.90;;;15.00;61.50;;;;;;4993355;28;20018;-47
2021/01/25 06:59:11;;;;;;;1.30;1.20;;;15.00;61.20;;;;;;4993726;28;20026;-46
2021/01/25 07:01:39;;;;;;;2.35;1.33;;;15.30;80.40;;;;;;4993299;28;20027;-47
2021/01/25 07:04:13;;;;;;;3.28;1.60;;;15.10;60.70;;;;;;4994356;28;20090;-46
2021/01/25 07:06:39;;;;;;;1.35;1.23;;;15.10;60.70;;;;;;4993404;28;20041;-47
2021/01/25 07:09:06;;;;;;;2.67;1.25;;;15.20;60.50;;;;;;4993300;28;20497;-48
2021/01/25 07:11:34;;;;;;;1.08;1.00;;;15.10;60.30;;;;;;4993444;28;20037;-44
2021/01/25 07:14:00;;;;;;;1.75;1.30;;;15.10;60.30;;;;;;4993183;28;20030;-46
2021/01/25 07:16:27;;;;;;;1.40;1.30;;;15.20;60.30;;;;;;4993113;28;20149;-46
2021/01/25 07:18:54;;;;;;;1.42;1.10;;;15.20;60.20;;;;;;4993316;28;20168;-47
2021/01/25 07:21:20;;;;;;;2.05;1.23;;;15.20;60.10;;;;;;4993320;28;20027;-47
2021/01/25 07:23:48;;;;;;;1.90;1.50;;;15.20;60.00;;;;;;4992988;28;20033;-48
2021/01/25 07:26:15;;;;;;;1.95;1.23;;;15.20;60.00;;;;;;4992910;28;20041;-48
2021/01/25 07:28:42;;;;;;;2.40;1.40;;;15.20;60.00;;;;;;4993171;28;20034;-47
2021/01/25 07:31:08;;;;;;;2.75;1.48;;;15.00;60.00;;;;;;4993152;28;20026;-46
2021/01/25 07:33:34;;;;;;;3.00;1.40;;;15.20;60.30;;;;;;4992875;28;20484;-44
2021/01/25 07:36:00;;;;;;;1.98;1.17;;;15.20;59.90;;;;;;4992943;28;20033;-48
2021/01/25 07:38:30;;;;;;;3.53;1.20;;;15.30;59.50;;;;;;4993045;28;20623;-48
2021/01/25 07:40:57;;;;;;;1.52;1.08;;;15.50;59.20;;;;;;4992793;28;20021;-50
2021/01/25 07:43:25;;;;;;;1.67;1.30;;;15.50;58.80;;;;;;4992937;28;20034;-47
2021/01/25 07:45:51;;;;;;;2.15;1.20;;;15.60;58.60;;;;;;4993090;28;20045;-48
2021/01/25 07:48:17;;;;;;;1.60;1.17;;;15.70;58.40;;;;;;4992555;28;20045;-48
2021/01/25 07:50:53;;;;;;;1.67;1.58;;;15.80;58.20;;;;;;4992855;28;20113;-49
2021/01/25 07:53:18;;;;;;;2.05;1.40;;;16.00;58.60;;;;;;4992895;28;20033;-48
2021/01/25 07:55:44;;;;;;;6.93;1.50;;;16.10;57.80;;;;;;4975228;28;20022;-49
2021/01/25 07:58:11;;;;;;;2.42;1.25;;;16.20;57.60;;;;;;4992614;28;20102;-48
2021/01/25 08:00:40;;;;;;;1.98;0.98;;;16.30;57.60;;;;;;4992541;28;20027;-49
2021/01/25 08:03:09;;;;;;;3.90;1.40;;;16.30;57.40;;;;;;4992663;28;20058;-47
2021/01/25 08:05:36;;;;;;;3.07;1.10;;;16.30;57.30;;;;;;4993921;28;20054;-46
2021/01/25 08:08:08;;;;;;;3.47;1.08;;;16.40;57.30;;;;;;4992348;28;20547;-47
2021/01/25 08:10:34;;;;;;;3.42;1.33;;;16.70;57.30;;;;;;4992713;28;20372;-47
2021/01/25 08:13:02;;;;;;;6.65;1.75;;;16.50;57.10;;;;;;4992293;28;20224;-48
2021/01/25 08:15:33;;;;;;;5.25;1.35;;;16.50;57.20;;;;;;4976184;28;20038;-48
2021/01/25 08:18:05;;;;;;;7.13;1.48;;;16.60;57.20;;;;;;4996316;28;20026;-47
2021/01/25 08:20:35;;;;;;;8.20;1.30;;;16.60;56.90;;;;;;4996385;28;20025;-46
2021/01/25 08:23:29;;;;;;;6.37;1.37;;;16.70;56.80;;;;;;4996208;28;20117;-46
2021/01/25 08:25:58;;;;;;;10.43;1.20;;;16.70;56.70;;;;;;4993157;28;20485;-47
2021/01/25 08:28:28;;;;;;;12.80;1.88;;;16.60;56.70;;;;;;4996179;28;20026;-48
2021/01/25 08:30:54;;;;;;;7.20;1.55;;;16.60;56.90;;;;;;4996410;28;20425;-49
2021/01/25 08:33:32;;;;;;;4.43;1.30;;;16.50;56.90;;;;;;4996061;28;20031;-47
2021/01/25 08:35:59;;;;;;;5.70;1.42;;;16.40;56.50;;;;;;4996319;28;20353;-49
2021/01/25 08:38:32;;;;;;;4.50;1.30;;;16.40;57.10;;;;;;4996206;28;20022;-47
2021/01/25 08:41:01;;;;;;;6.68;1.77;;;16.40;57.10;;;;;;4996311;28;20440;-48
2021/01/25 08:43:29;;;;;;;5.25;1.77;;;16.40;57.20;;;;;;4996174;28;20105;-48
2021/01/25 08:46:12;;;;;;;3.22;1.02;;;16.30;57.20;;;;;;4995699;28;20026;-50
2021/01/25 08:48:38;;;;;;;3.67;1.50;;;16.30;57.20;;;;;;4995774;28;20410;-48
2021/01/25 08:51:11;;;;;;;4.82;1.00;;;16.30;57.20;;;;;;4995748;28;20425;-47
2021/01/25 08:53:37;;;;;;;4.00;1.65;;;16.30;57.30;;;;;;4994918;28;20347;-48
2021/01/25 08:56:15;;;;;;;7.43;1.48;;;16.30;57.50;;;;;;4995524;28;20018;-48
2021/01/25 08:58:41;;;;;;;10.82;1.52;;;16.30;57.50;;;;;;4995295;28;20057;-48
2021/01/25 09:01:20;;;;;;;3.03;1.05;;;16.40;76.90;;;;;;4987788;28;20054;-48
2021/01/25 09:03:46;;;;;;;2.33;1.30;;;16.20;57.50;;;;;;4996819;28;20022;-44
2021/01/25 09:06:12;;;;;;;6.82;1.38;;;16.20;57.40;;;;;;4978364;28;20049;-44
2021/01/25 09:08:38;;;;;;;2.30;1.77;;;16.10;57.20;;;;;;4995787;28;20045;-44
2021/01/25 09:11:04;;;;;;;5.45;1.90;;;16.30;57.00;;;;;;4995765;28;20101;-44
2021/01/25 09:13:30;;;;;;;4.22;1.85;;;;;;;;;;4995754;28;20378;-44
2021/01/25 09:15:56;;;;;;;3.17;2.17;;;16.00;55.90;;;;;;4995646;28;20429;-45
2021/01/25 09:18:22;;;;;;;3.17;1.83;;;16.00;56.30;;;;;;4995685;28;20015;-44
2021/01/25 09:20:48;;;;;;;2.60;2.17;;;16.00;56.20;;;;;;4995526;28;20381;-44
2021/01/25 09:23:13;;;;;;;4.70;2.08;;;15.90;56.20;;;;;;4995111;28;20034;-47
2021/01/25 09:25:39;;;;;;;3.55;2.33;;;15.90;56.00;;;;;;4995048;28;20022;-46
2021/01/25 09:28:04;;;;;;;11.35;2.35;;;15.90;56.10;;;;;;4995035;28;20189;-46
2021/01/25 09:30:30;;;;;;;5.82;2.35;;;15.80;56.10;;;;;;4995391;28;20026;-45
2021/01/25 09:32:56;;;;;;;4.47;1.92;;;15.80;56.20;;;;;;4994984;28;20038;-46
2021/01/25 09:35:23;;;;;;;5.82;2.30;;;15.80;56.50;;;;;;4995185;28;20150;-51
2021/01/25 09:37:48;;;;;;;4.78;2.13;;;15.80;57.00;;;;;;4994899;28;20022;-50
2021/01/25 09:40:15;;;;;;;4.43;2.28;;;15.80;57.10;;;;;;4995106;28;20030;-45
2021/01/25 09:42:41;;;;;;;9.65;2.08;;;15.90;57.00;;;;;;4977332;28;20529;-45
2021/01/25 09:45:08;;;;;;;5.63;1.92;;;15.90;56.80;;;;;;4994748;28;20026;-44
2021/01/25 09:47:33;;;;;;;4.22;2.05;;;15.90;56.50;;;;;;4994608;28;20042;-44
2021/01/25 09:49:59;;;;;;;3.17;2.00;;;16.00;56.50;;;;;;4994924;28;20022;-45
2021/01/25 09:52:25;;;;;;;6.38;2.35;;;16.00;56.30;;;;;;4994919;28;20050;-45
2021/01/25 09:54:51;;;;;;;4.22;2.05;;;16.10;56.30;;;;;;4994786;28;20516;-45
2021/01/25 09:57:17;;;;;;;4.70;1.75;;;16.10;56.30;;;;;;4994347;28;20377;-42
2021/01/25 09:59:43;;;;;;;2.65;1.95;;;16.20;56.10;;;;;;4994379;28;20044;-45
2021/01/25 10:02:09;;;;;;;2.97;2.05;;;16.20;55.80;;;;;;4994298;28;20528;-44
2021/01/25 10:04:34;;;;;;;3.25;2.10;;;16.30;55.60;;;;;;4995820;28;20194;-44
2021/01/25 10:07:00;;;;;;;3.45;1.73;;;16.30;55.30;;;;;;4994002;28;20034;-44
2021/01/25 10:09:25;;;;;;;6.85;1.95;;;16.50;55.10;;;;;;4994301;28;20035;-44
2021/01/25 10:11:52;;;;;;;3.85;1.90;;;16.50;55.00;;;;;;4994395;28;20023;-45
2021/01/25 10:14:18;;;;;;;5.07;1.88;;;16.50;55.40;;;;;;4994460;28;20030;-44
2021/01/25 10:16:44;;;;;;;4.70;1.80;;;16.40;56.40;;;;;;4994465;28;20122;-44
2021/01/25 10:19:09;;;;;;;4.38;2.13;;;16.40;57.80;;;;;;4994270;28;20043;-46
2021/01/25 10:21:35;;;;;;;5.00;1.95;;;16.40;58.80;;;;;;4994419;28;20085;-47
2021/01/25 10:24:00;;;;;;;5.55;2.05;;;16.30;59.40;;;;;;4994305;28;20049;-46
2021/01/25 10:26:26;;;;;;;4.30;1.67;;;16.20;60.00;;;;;;4994252;28;20030;-46
2021/01/25 10:28:51;;;;;;;2.80;1.75;;;16.20;60.20;;;;;;4976349;28;20393;-46
2021/01/25 10:31:17;;;;;;;2.25;1.48;;;16.20;60.80;;;;;;4976710;28;20069;-47
2021/01/25 10:33:43;;;;;;;2.22;1.40;;;16.10;61.90;;;;;;4993828;28;20503;-48
2021/01/25 10:36:09;;;;;;;3.35;1.52;;;16.10;62.70;;;;;;4993941;28;20023;-47
2021/01/25 10:38:34;;;;;;;5.93;1.60;;;16.10;64.00;;;;;;4992978;28;20030;-48
2021/01/25 10:41:00;;;;;;;5.07;1.80;;;16.10;63.80;;;;;;4993923;28;20026;-49
2021/01/25 10:43:26;;;;;;;3.25;1.80;;;16.10;64.80;;;;;;4993889;28;20018;-48
2021/01/25 10:45:51;;;;;;;2.13;1.42;;;16.10;64.80;;;;;;4993835;28;20102;-47
2021/01/25 10:48:17;;;;;;;2.40;1.50;;;16.20;65.40;;;;;;4993833;28;20053;-47
2021/01/25 10:50:42;;;;;;;3.97;1.70;;;16.20;65.40;;;;;;4993810;28;20369;-47
2021/01/25 10:53:08;;;;;;;4.25;1.73;;;16.40;65.40;;;;;;4993821;28;20466;-47
2021/01/25 10:55:33;;;;;;;2.55;1.60;;;16.40;65.60;;;;;;4993738;28;20023;-49
2021/01/25 10:57:59;;;;;;;3.53;1.60;;;16.50;65.40;;;;;;4976052;28;20037;-47
2021/01/25 11:00:25;;;;;;;3.67;1.70;;;16.50;65.10;;;;;;4993491;28;20049;-46
2021/01/25 11:02:52;;;;;;;3.10;1.80;;;16.60;65.40;;;;;;4975985;28;20030;-51
2021/01/25 11:05:25;;;;;;;2.63;1.73;;;16.70;65.40;;;;;;4977711;28;20049;-46
2021/01/25 11:07:50;;;;;;;3.85;1.52;;;16.70;65.20;;;;;;4993479;28;20116;-49
2021/01/25 11:10:23;;;;;;;1.90;1.70;;;16.70;65.20;;;;;;4993332;28;20492;-46
2021/01/25 11:12:49;;;;;;;1.98;1.67;;;16.70;65.00;;;;;;4993576;28;20034;-47
2021/01/25 11:15:16;;;;;;;2.45;1.30;;;16.90;65.60;;;;;;4993293;28;20026;-46
2021/01/25 11:17:41;;;;;;;2.85;1.50;;;16.80;64.80;;;;;;4993191;28;20085;-48
2021/01/25 11:20:08;;;;;;;2.28;1.30;;;16.80;65.10;;;;;;4993305;28;20022;-47
2021/01/25 11:22:34;;;;;;;3.63;1.38;;;16.80;65.30;;;;;;4993326;28;20031;-46
2021/01/25 11:24:59;;;;;;;2.13;1.45;;;16.70;66.50;;;;;;4975673;28;20073;-47
2021/01/25 11:27:25;;;;;;;4.10;1.30;;;16.80;66.50;;;;;;4992707;28;20476;-48
2021/01/25 11:29:50;;;;;;;2.92;1.45;;;16.70;66.40;;;;;;4992884;28;20469;-47
2021/01/25 11:32:16;;;;;;;2.08;1.50;;;16.70;66.00;;;;;;4993024;28;20022;-47
2021/01/25 11:34:41;;;;;;;2.60;1.65;;;16.60;65.80;;;;;;4992820;28;20027;-48
2021/01/25 11:37:08;;;;;;;2.88;1.50;;;16.60;66.20;;;;;;4993021;28;20089;-48
2021/01/25 11:39:34;;;;;;;2.20;1.20;;;16.80;66.20;;;;;;4993027;28;20057;-47
2021/01/25 11:41:59;;;;;;;1.60;1.30;;;16.50;66.50;;;;;;4992620;28;20054;-48
2021/01/25 11:44:26;;;;;;;2.20;1.70;;;16.40;66.20;;;;;;4992698;28;20058;-47
2021/01/25 11:46:52;;;;;;;2.78;1.17;;;16.40;66.40;;;;;;4992772;28;20061;-48
2021/01/25 11:49:19;;;;;;;2.42;1.65;;;16.40;66.70;;;;;;4992577;28;20022;-48
2021/01/25 11:51:45;;;;;;;2.95;1.80;;;16.30;67.40;;;;;;4992349;28;20088;-49
2021/01/25 11:54:11;;;;;;;2.53;1.77;;;16.20;68.80;;;;;;4992716;28;20102;-47
2021/01/25 11:56:37;;;;;;;4.05;1.50;;;16.20;69.70;;;;;;4992217;28;20530;-49
2021/01/25 11:59:02;;;;;;;4.00;1.63;;;16.10;69.90;;;;;;4992537;28;20145;-50
2021/01/25 12:01:28;;;;;;;3.20;1.70;;;16.10;69.70;;;;;;4974839;28;20634;-48
2021/01/25 12:03:54;;;;;;;1.60;1.40;;;16.00;70.10;;;;;;4992936;28;20034;-47
2021/01/25 12:06:19;;;;;;;2.80;1.50;;;15.80;70.10;;;;;;4993069;28;20408;-47
2021/01/25 12:08:45;;;;;;;4.90;1.48;;;16.00;70.80;;;;;;4992482;28;20043;-46
2021/01/25 12:11:18;;;;;;;3.92;1.77;;;16.00;71.10;;;;;;4992538;28;20093;-46
2021/01/25 12:13:43;;;;;;;1.40;1.05;;;15.90;70.80;;;;;;4992612;28;20026;-47
2021/01/25 12:16:12;;;;;;;2.60;1.50;;;16.20;71.50;;;;;;4992237;28;20045;-46
2021/01/25 12:18:38;;;;;;;1.90;1.40;;;16.00;71.60;;;;;;4992540;28;20025;-47
2021/01/25 12:21:04;;;;;;;2.22;1.20;;;16.00;72.00;;;;;;4992246;28;20027;-47
2021/01/25 12:23:30;;;;;;;1.70;1.45;;;16.00;72.20;;;;;;4992174;28;20084;-47
2021/01/25 12:25:55;;;;;;;1.65;1.33;;;16.00;72.60;;;;;;4992407;28;20030;-46
2021/01/25 12:28:21;;;;;;;2.13;1.30;;;16.00;73.00;;;;;;4992399;28;20030;-47
2021/01/25 12:30:46;;;;;;;2.20;1.30;;;16.00;73.20;;;;;;4992437;28;20030;-46
2021/01/25 12:33:12;;;;;;;1.63;1.42;;;16.00;73.20;;;;;;4992503;28;20122;-48
2021/01/25 12:35:38;;;;;;;1.33;1.20;;;16.00;73.40;;;;;;4974901;28;20053;-47
2021/01/25 12:38:05;;;;;;;1.42;1.20;;;16.00;73.80;;;;;;4991988;28;20034;-47
2021/01/25 12:40:31;;;;;;;1.50;1.40;;;15.80;73.80;;;;;;4992305;28;20099;-47
2021/01/25 12:42:57;;;;;;;1.75;1.35;;;16.00;74.00;;;;;;4992358;28;20117;-47
2021/01/25 12:45:24;;;;;;;1.65;1.33;;;16.00;74.00;;;;;;4992268;28;20019;-46
2021/01/25 12:47:50;;;;;;;3.50;1.23;;;;;;;;;;4991925;28;20034;-46
2021/01/25 12:50:16;;;;;;;1.30;1.20;;;16.00;73.80;;;;;;4992123;28;20026;-48
2021/01/25 12:52:41;;;;;;;1.48;1.10;;;16.00;74.40;;;;;;4992053;28;20038;-48